createdAt,value
2023-11-18T00:02:27.465Z,25.20
2023-11-18T00:06:10.666Z,22.70
2023-11-18T00:09:47.188Z,24.40
2023-11-18T00:13:23.741Z,23.70
2023-11-18T00:17:00.262Z,23.10
2023-11-18T00:20:37.107Z,25.70
2023-11-18T00:24:19.752Z,24.40
2023-11-18T00:28:04.199Z,21.10
2023-11-18T00:31:48.333Z,26.40
2023-11-18T00:35:32.118Z,23.10
2023-11-18T00:39:14.718Z,25.70
2023-11-18T00:42:57.475Z,28.20
2023-11-18T00:46:40.045Z,24.40
2023-11-18T00:50:23.322Z,23.90
2023-11-18T00:54:06.123Z,21.80
2023-11-18T00:57:48.640Z,20.30
2023-11-18T01:01:30.999Z,21.60
2023-11-18T01:05:07.642Z,22.10
2023-11-18T01:08:44.671Z,20.90
2023-11-18T01:12:21.564Z,19.10
2023-11-18T01:15:58.530Z,21.50
2023-11-18T01:19:41.185Z,22.80
2023-11-18T01:23:23.985Z,21.00
2023-11-18T01:27:13.618Z,21.00
2023-11-18T01:30:56.253Z,22.40
2023-11-18T01:34:39.082Z,18.80
2023-11-18T01:38:28.623Z,23.40
2023-11-18T01:42:11.265Z,21.90
2023-11-18T01:45:54.545Z,23.80
2023-11-18T01:48:23.821Z,22.30
2023-11-18T01:50:59.009Z,25.30
2023-11-18T01:53:28.185Z,23.30
2023-11-18T01:56:01.860Z,23.60
2023-11-18T01:58:37.046Z,22.60
2023-11-18T02:01:11.490Z,22.20
2023-11-18T02:03:43.770Z,23.80
2023-11-18T02:06:11.906Z,22.30
2023-11-18T02:08:39.984Z,24.70
2023-11-18T02:11:18.835Z,22.90
2023-11-18T02:13:49.230Z,23.80
2023-11-18T02:16:25.372Z,24.50
2023-11-18T02:18:56.298Z,22.90
2023-11-18T02:21:30.109Z,21.60
2023-11-18T02:23:59.662Z,21.90
2023-11-18T02:26:27.802Z,19.50
2023-11-18T02:29:00.416Z,21.40
2023-11-18T02:31:35.020Z,22.20
2023-11-18T02:36:37.435Z,19.60
2023-11-18T02:39:17.244Z,22.00
2023-11-18T02:42:00.276Z,22.60
2023-11-18T02:44:34.149Z,19.20
2023-11-18T02:47:10.952Z,22.10
2023-11-18T02:49:47.230Z,23.90
2023-11-18T02:52:15.662Z,22.80
2023-11-18T02:54:49.264Z,21.60
2023-11-18T02:57:21.561Z,22.20
2023-11-18T02:59:53.485Z,21.90
2023-11-18T03:02:25.651Z,22.00
2023-11-18T03:05:00.929Z,24.10
2023-11-18T03:07:30.961Z,21.80
2023-11-18T03:10:04.240Z,22.70
2023-11-18T03:12:37.048Z,20.80
2023-11-18T03:15:10.589Z,23.40
2023-11-18T03:17:47.277Z,20.90
2023-11-18T03:20:18.413Z,22.20
2023-11-18T03:22:52.606Z,20.80
2023-11-18T03:25:24.285Z,21.10
2023-11-18T03:27:56.367Z,21.10
2023-11-18T03:30:24.019Z,20.90
2023-11-18T03:32:56.271Z,21.10
2023-11-18T03:35:27.054Z,18.40
2023-11-18T03:37:54.927Z,22.20
2023-11-18T03:40:25.862Z,20.40
2023-11-18T03:42:59.968Z,22.30
2023-11-18T03:45:32.449Z,22.50
2023-11-18T03:48:02.224Z,22.30
2023-11-18T03:50:29.954Z,22.20
2023-11-18T03:53:05.069Z,22.90
2023-11-18T03:55:32.735Z,24.30
2023-11-18T03:58:00.568Z,21.60
2023-11-18T04:00:41.299Z,22.10
2023-11-18T04:03:09.132Z,24.50
2023-11-18T04:05:36.854Z,24.30
2023-11-18T04:08:09.252Z,22.00
2023-11-18T04:13:14.195Z,25.10
2023-11-18T04:15:41.840Z,20.40
2023-11-18T04:18:15.910Z,24.30
2023-11-18T04:20:43.835Z,24.20
2023-11-18T04:23:17.626Z,21.10
2023-11-18T04:25:46.371Z,21.70
2023-11-18T04:28:13.974Z,21.70
2023-11-18T04:30:47.719Z,22.30
2023-11-18T04:33:15.446Z,20.60
2023-11-18T04:35:43.432Z,23.30
2023-11-18T04:38:11.306Z,24.50
2023-11-18T04:40:46.997Z,22.10
2023-11-18T04:43:16.570Z,23.50
2023-11-18T04:45:51.831Z,23.30
2023-11-18T04:48:20.124Z,19.50
2023-11-18T04:50:53.925Z,20.40
2023-11-18T04:53:26.938Z,23.20
2023-11-18T04:55:54.706Z,20.90
2023-11-18T04:58:28.508Z,21.20
2023-11-18T05:00:56.084Z,21.10
2023-11-18T05:03:25.751Z,19.60
2023-11-18T05:05:57.730Z,20.30
2023-11-18T05:08:32.500Z,21.40
2023-11-18T05:11:00.339Z,17.70
2023-11-18T05:13:28.327Z,23.10
2023-11-18T05:16:02.365Z,22.10
2023-11-18T05:18:34.845Z,19.40
2023-11-18T05:21:04.043Z,20.50
2023-11-18T05:23:31.721Z,21.50
2023-11-18T05:26:02.649Z,18.40
2023-11-18T05:28:31.426Z,17.40
2023-11-18T05:31:06.306Z,17.10
2023-11-18T05:33:36.560Z,18.60
2023-11-18T05:36:06.836Z,17.70
2023-11-18T05:38:36.555Z,19.50
2023-11-18T05:41:17.876Z,18.40
2023-11-18T05:45:02.482Z,14.70
2023-11-18T05:48:46.587Z,15.30
2023-11-18T05:52:29.160Z,14.50
2023-11-18T05:56:10.685Z,17.00
2023-11-18T05:59:47.653Z,17.40
2023-11-18T06:03:23.197Z,19.30
2023-11-18T06:06:58.598Z,16.30
2023-11-18T06:10:33.534Z,19.10
2023-11-18T06:14:10.305Z,14.30
2023-11-18T06:17:53.860Z,15.90
2023-11-18T06:21:36.701Z,16.80
2023-11-18T06:25:19.666Z,15.70
2023-11-18T06:29:05.648Z,18.10
2023-11-18T06:32:48.490Z,19.20
2023-11-18T06:36:31.620Z,16.70
2023-11-18T06:40:14.983Z,16.10
2023-11-18T06:43:58.989Z,13.50
2023-11-18T06:47:42.772Z,14.00
2023-11-18T06:51:25.512Z,15.40
2023-11-18T06:55:01.890Z,13.50
2023-11-18T06:58:44.949Z,13.80
2023-11-18T07:02:27.403Z,12.20
2023-11-18T07:06:16.753Z,16.20
2023-11-18T07:10:00.850Z,16.40
2023-11-18T07:13:45.175Z,14.40
2023-11-18T07:17:34.981Z,9.20
2023-11-18T07:21:30.835Z,14.50
2023-11-18T07:25:13.877Z,13.50
2023-11-18T07:29:02.733Z,18.70
2023-11-18T07:32:43.779Z,16.70
2023-11-18T07:36:20.419Z,20.10
2023-11-18T07:39:57.014Z,17.00
2023-11-18T07:43:33.904Z,16.10
2023-11-18T07:47:16.657Z,15.10
2023-11-18T07:50:41.357Z,14.10
2023-11-18T07:54:06.065Z,16.70
2023-11-18T07:57:30.737Z,15.20
2023-11-18T08:00:56.696Z,15.40
2023-11-18T08:04:33.154Z,16.10
2023-11-18T08:08:08.530Z,14.60
2023-11-18T08:11:47.639Z,14.50
2023-11-18T08:15:23.029Z,15.20
2023-11-18T08:19:11.806Z,15.90
2023-11-18T08:22:55.214Z,13.00
2023-11-18T08:26:30.788Z,14.00
2023-11-18T08:30:06.362Z,12.50
2023-11-18T08:33:41.499Z,13.50
2023-11-18T08:37:24.993Z,14.70
2023-11-18T08:41:01.362Z,12.80
2023-11-18T08:44:35.930Z,12.20
2023-11-18T08:48:10.276Z,12.60
2023-11-18T08:51:44.272Z,13.30
2023-11-18T08:55:21.158Z,12.80
2023-11-18T08:58:56.581Z,13.30
2023-11-18T09:02:40.852Z,10.70
2023-11-18T09:06:17.738Z,13.10
2023-11-18T09:09:49.963Z,13.70
2023-11-18T09:13:25.521Z,14.80
2023-11-18T09:17:00.829Z,13.50
2023-11-18T09:20:35.314Z,13.70
2023-11-18T09:24:12.871Z,13.10
2023-11-18T09:27:48.070Z,14.40
2023-11-18T09:31:26.864Z,14.00
2023-11-18T09:35:04.948Z,12.50
2023-11-18T09:38:39.514Z,11.00
2023-11-18T09:42:14.772Z,10.00
2023-11-18T09:45:57.624Z,12.90
2023-11-18T09:49:41.194Z,12.80
2023-11-18T09:53:23.934Z,11.80
2023-11-18T09:57:07.212Z,11.10
2023-11-18T10:00:51.053Z,14.40
2023-11-18T10:11:25.218Z,12.20
2023-11-18T10:15:13.961Z,13.40
2023-11-18T10:18:56.999Z,11.30
2023-11-18T10:22:40.289Z,10.80
2023-11-18T10:26:23.109Z,13.60
2023-11-18T10:30:05.794Z,13.00
2023-11-18T10:33:49.547Z,11.80
2023-11-18T10:37:32.945Z,13.70
2023-11-18T10:41:16.139Z,13.90
2023-11-18T10:44:58.629Z,10.80
2023-11-18T10:48:41.467Z,11.20
2023-11-18T10:52:24.288Z,11.40
2023-11-18T10:56:07.021Z,12.30
2023-11-18T10:59:50.072Z,9.20
2023-11-18T11:03:32.985Z,14.20
2023-11-18T11:07:15.742Z,12.70
2023-11-18T11:10:59.119Z,11.20
2023-11-18T11:14:42.335Z,14.60
2023-11-18T11:18:25.250Z,13.00
2023-11-18T11:22:07.174Z,12.20
2023-11-18T11:25:56.114Z,12.20
2023-11-18T11:29:38.922Z,12.00
2023-11-18T11:33:23.112Z,12.50
2023-11-18T11:37:06.491Z,15.40
2023-11-18T11:40:50.263Z,12.60
2023-11-18T11:48:10.323Z,14.10
2023-11-18T11:51:53.101Z,13.40
2023-11-18T11:55:36.236Z,11.60
2023-11-18T11:59:19.501Z,15.10
2023-11-18T12:03:02.238Z,9.60
2023-11-18T12:06:52.510Z,13.50
2023-11-18T12:14:08.255Z,11.90
2023-11-18T12:17:50.851Z,13.90
2023-11-18T12:21:33.503Z,14.40
2023-11-18T12:25:20.118Z,14.60
2023-11-18T12:29:04.405Z,18.80
2023-11-18T12:32:46.870Z,10.20
2023-11-18T12:36:29.560Z,12.80
2023-11-18T12:40:19.290Z,19.10
2023-11-18T12:44:03.273Z,12.90
2023-11-18T12:47:52.339Z,15.10
2023-11-18T12:51:35.153Z,10.00
2023-11-18T12:55:18.572Z,14.10
2023-11-18T12:59:01.333Z,10.70
2023-11-18T13:02:44.150Z,11.70
2023-11-18T13:06:26.768Z,11.00
2023-11-18T13:10:09.376Z,9.90
2023-11-18T13:13:52.011Z,11.40
2023-11-18T13:17:33.920Z,9.20
2023-11-18T13:21:14.676Z,10.50
2023-11-18T13:24:56.360Z,12.40
2023-11-18T13:28:37.783Z,11.40
2023-11-18T13:32:18.861Z,12.70
2023-11-18T13:36:01.375Z,14.20
2023-11-18T13:39:43.022Z,9.20
2023-11-18T13:43:24.048Z,11.50
2023-11-18T13:46:57.763Z,12.30
2023-11-18T13:50:40.334Z,14.70
2023-11-18T13:54:17.030Z,9.70
2023-11-18T13:57:59.788Z,12.60
2023-11-18T14:01:43.510Z,12.90
2023-11-18T14:05:20.066Z,11.50
2023-11-18T14:09:03.088Z,11.00
2023-11-18T14:12:40.458Z,9.60
2023-11-18T14:16:23.004Z,15.10
2023-11-18T14:20:05.469Z,11.00
2023-11-18T14:23:48.282Z,15.10
2023-11-18T14:27:31.013Z,10.10
2023-11-18T14:31:07.879Z,11.80
2023-11-18T14:34:45.039Z,15.10
2023-11-18T14:38:27.697Z,15.10
2023-11-18T14:42:10.631Z,13.60
2023-11-18T14:45:56.587Z,14.30
2023-11-18T14:49:39.443Z,11.30
2023-11-18T14:53:22.355Z,11.90
2023-11-18T14:57:05.782Z,16.10
2023-11-18T15:00:48.964Z,9.30
2023-11-18T15:04:31.670Z,11.50
2023-11-18T15:08:21.558Z,14.40
2023-11-18T15:12:04.180Z,12.40
2023-11-18T15:15:45.570Z,9.70
2023-11-18T15:19:22.143Z,12.40
2023-11-18T15:23:04.543Z,11.10
2023-11-18T15:26:41.049Z,10.10
2023-11-18T15:30:17.685Z,10.50
2023-11-18T15:34:00.382Z,15.80
2023-11-18T15:37:40.762Z,12.40
2023-11-18T15:41:31.519Z,14.50
2023-11-18T15:45:09.657Z,11.30
2023-11-18T15:48:52.308Z,10.30
2023-11-18T15:52:34.916Z,11.80
2023-11-18T15:56:17.941Z,11.40
2023-11-18T16:00:00.864Z,13.80
2023-11-18T16:03:50.719Z,14.50
2023-11-18T16:07:33.322Z,12.90
2023-11-18T16:11:16.856Z,10.90
2023-11-18T16:14:59.880Z,11.90
2023-11-18T16:18:38.382Z,11.80
2023-11-18T16:22:21.060Z,12.70
2023-11-18T16:26:04.157Z,15.10
2023-11-18T16:29:46.871Z,11.50
2023-11-18T16:33:29.856Z,13.60
2023-11-18T16:37:12.700Z,12.10
2023-11-18T16:40:56.027Z,13.50
2023-11-18T16:44:38.839Z,13.80
2023-11-18T16:48:21.810Z,19.70
2023-11-18T16:52:04.821Z,9.10
2023-11-18T16:55:47.654Z,9.70
2023-11-18T16:59:30.782Z,11.30
2023-11-18T17:03:19.960Z,11.10
2023-11-18T17:07:02.789Z,10.50
2023-11-18T17:10:45.521Z,8.30
2023-11-18T17:14:28.407Z,13.00
2023-11-18T17:18:11.283Z,8.20
2023-11-18T17:21:53.765Z,10.20
2023-11-18T17:25:36.615Z,11.90
2023-11-18T17:29:19.766Z,11.30
2023-11-18T17:32:56.419Z,11.90
2023-11-18T17:36:39.012Z,10.80
2023-11-18T17:40:16.932Z,10.50
2023-11-18T17:43:39.287Z,12.00
2023-11-18T17:46:13.038Z,11.00
2023-11-18T17:48:46.824Z,11.80
2023-11-18T17:51:14.450Z,13.90
2023-11-18T17:53:48.720Z,13.40
2023-11-18T17:56:22.609Z,12.40
2023-11-18T17:58:52.244Z,9.30
2023-11-18T18:01:26.964Z,9.60
2023-11-18T18:03:54.836Z,15.70
2023-11-18T18:06:22.751Z,11.60
2023-11-18T18:08:51.005Z,9.70
2023-11-18T18:11:26.730Z,11.50
2023-11-18T18:13:55.649Z,13.70
2023-11-18T18:16:29.484Z,11.50
2023-11-18T18:19:01.852Z,11.70
2023-11-18T18:21:29.913Z,10.40
2023-11-18T18:23:58.085Z,9.70
2023-11-18T18:26:26.126Z,9.10
2023-11-18T18:28:58.861Z,11.30
2023-11-18T18:31:28.234Z,10.60
2023-11-18T18:34:00.247Z,12.60
2023-11-18T18:36:32.098Z,10.60
2023-11-18T18:39:04.519Z,10.20
2023-11-18T18:44:09.127Z,9.70
2023-11-18T18:46:42.117Z,11.80
2023-11-18T18:49:19.136Z,11.60
2023-11-18T18:51:52.724Z,9.40
2023-11-18T18:54:25.048Z,8.80
2023-11-18T18:56:57.691Z,8.00
2023-11-18T18:59:28.666Z,11.50
2023-11-18T19:02:01.438Z,11.10
2023-11-18T19:04:35.202Z,9.00
2023-11-18T19:07:05.992Z,12.20
2023-11-18T19:09:38.331Z,13.30
2023-11-18T19:12:10.610Z,11.50
2023-11-18T19:14:43.204Z,10.20
2023-11-18T19:17:15.247Z,11.60
2023-11-18T19:19:47.680Z,10.90
2023-11-18T19:22:20.241Z,12.60
2023-11-18T19:24:52.629Z,11.70
2023-11-18T19:29:58.208Z,14.00
2023-11-18T19:32:30.308Z,9.70
2023-11-18T19:35:01.362Z,10.00
2023-11-18T19:37:34.587Z,13.30
2023-11-18T19:40:10.837Z,10.90
2023-11-18T19:42:40.847Z,12.90
2023-11-18T19:45:14.535Z,10.40
2023-11-18T19:47:46.310Z,13.30
2023-11-18T19:52:52.440Z,10.90
2023-11-18T19:55:24.240Z,11.20
2023-11-18T19:57:56.165Z,10.80
2023-11-18T20:00:28.325Z,9.10
2023-11-18T20:03:00.790Z,11.60
2023-11-18T20:05:35.339Z,10.30
2023-11-18T20:08:08.582Z,10.30
2023-11-18T20:10:39.499Z,9.50
2023-11-18T20:13:12.379Z,10.50
2023-11-18T20:15:44.260Z,8.40
2023-11-18T20:18:16.427Z,10.60
2023-11-18T20:20:48.429Z,10.70
2023-11-18T20:23:22.897Z,13.10
2023-11-18T20:25:55.187Z,9.70
2023-11-18T20:28:27.824Z,11.60
2023-11-18T20:31:00.968Z,10.90
2023-11-18T20:33:33.042Z,11.20
2023-11-18T20:36:07.630Z,14.10
2023-11-18T20:38:35.508Z,10.10
2023-11-18T20:41:09.344Z,11.90
2023-11-18T20:43:37.106Z,12.80
2023-11-18T20:46:13.752Z,9.60
2023-11-18T20:48:41.905Z,11.20
2023-11-18T20:51:15.854Z,13.50
2023-11-18T20:53:43.782Z,10.70
2023-11-18T20:56:20.069Z,9.50
2023-11-18T20:58:48.819Z,10.40
2023-11-18T21:01:17.560Z,11.60
2023-11-18T21:03:45.445Z,11.70
2023-11-18T21:06:21.255Z,10.70
2023-11-18T21:08:50.410Z,12.60
2023-11-18T21:11:18.966Z,10.70
2023-11-18T21:13:47.401Z,11.40
2023-11-18T21:16:19.576Z,10.00
2023-11-18T21:18:51.797Z,10.40
2023-11-18T21:21:23.336Z,11.20
2023-11-18T21:23:55.554Z,10.80
2023-11-18T21:26:32.525Z,9.00
2023-11-18T21:29:00.851Z,10.70
2023-11-18T21:31:32.584Z,11.90
2023-11-18T21:34:05.979Z,12.80
2023-11-18T21:36:38.848Z,13.30
2023-11-18T21:39:14.653Z,17.20
2023-11-18T21:41:51.160Z,10.60
2023-11-18T21:44:28.248Z,11.30
2023-11-18T21:47:11.629Z,8.60
2023-11-18T21:49:52.992Z,10.70
2023-11-18T21:52:36.079Z,11.60
2023-11-18T21:55:16.153Z,12.50
2023-11-18T21:57:55.831Z,10.80
2023-11-18T22:00:45.022Z,11.20
2023-11-18T22:03:26.185Z,11.00
2023-11-18T22:06:06.119Z,10.30
2023-11-18T22:08:48.010Z,9.80
2023-11-18T22:14:17.077Z,11.90
2023-11-18T22:16:56.866Z,12.60
2023-11-18T22:19:41.616Z,11.00
2023-11-18T22:22:21.576Z,12.10
2023-11-18T22:25:01.437Z,11.20
2023-11-18T22:27:41.698Z,11.50
2023-11-18T22:30:25.118Z,16.20
2023-11-18T22:33:09.536Z,11.30
2023-11-18T22:35:50.499Z,10.50
2023-11-18T22:38:30.500Z,10.50
2023-11-18T22:41:13.218Z,13.90
2023-11-18T22:43:54.677Z,10.70
2023-11-18T22:46:38.744Z,11.90
2023-11-18T22:49:19.418Z,13.00
2023-11-18T22:52:00.307Z,12.60
2023-11-18T22:54:40.215Z,11.80
2023-11-18T22:57:20.802Z,12.50
2023-11-18T23:00:00.530Z,12.90
2023-11-18T23:02:41.796Z,12.50
2023-11-18T23:05:26.603Z,12.00
2023-11-18T23:08:09.406Z,11.20
2023-11-18T23:10:50.352Z,11.50
2023-11-18T23:13:31.427Z,13.60
2023-11-18T23:16:15.265Z,12.00
2023-11-18T23:18:57.199Z,13.30
2023-11-18T23:21:37.166Z,13.70
2023-11-18T23:24:17.001Z,12.50
2023-11-18T23:26:56.930Z,11.30
2023-11-18T23:29:36.777Z,9.70
2023-11-18T23:32:16.533Z,11.70
2023-11-18T23:34:58.996Z,14.50
2023-11-18T23:37:38.723Z,10.40
2023-11-18T23:40:20.858Z,12.60
2023-11-18T23:43:00.857Z,12.50
2023-11-18T23:45:42.512Z,11.40
2023-11-18T23:48:22.436Z,11.00
2023-11-18T23:51:02.309Z,10.60
2023-11-18T23:53:42.120Z,11.50
2023-11-18T23:56:22.317Z,13.30
2023-11-18T23:59:02.107Z,13.30
